Chemult, Oregon
Current Conditions -  °F | °C
As of 4:35 PM on Saturday 25 Oct 2014 (Local Time) from KBDN Reporting Station
Light Rain Light Rain  
Wind Chill: 50°   Ceiling: Unl
Heat Index: 50°   Visibility: 10mi
Dew Point: 41°   Wind: 30mph
Humidity: 71%   Direction: 200°SSW
Pressure: 29.63"   Gusts: 46mph
Location:  43.22°N, 121.79°W
Report Text: KBDN 252335Z AUTO 20026G40KT 10SM -RA FEW015 FEW027 10/05 A2963 RMK AO2
Loading
Personal Weather Stations






























Interactive Weather Map
Tropical Storm Tracking
New forecast layout! Learn more

10-Day Weather Forecast

Advertisements
Track Severe Weather on mobile